createdAt,value
2023-05-07T00:00:05.892Z,70.20
2023-05-07T00:02:38.602Z,69.91
2023-05-07T00:05:06.511Z,70.40
2023-05-07T00:07:34.113Z,70.37
2023-05-07T00:10:01.552Z,70.79
2023-05-07T00:12:34.791Z,70.88
2023-05-07T00:15:04.295Z,70.87
2023-05-07T00:17:34.895Z,70.92
2023-05-07T00:20:02.178Z,70.95
2023-05-07T00:22:33.464Z,70.87
2023-05-07T00:25:01.359Z,71.19
2023-05-07T00:27:32.883Z,71.05
2023-05-07T00:30:05.781Z,71.15
2023-05-07T00:32:38.092Z,71.38
2023-05-07T00:35:06.787Z,71.67
2023-05-07T00:37:33.929Z,71.60
2023-05-07T00:40:01.075Z,71.73
2023-05-07T00:42:29.004Z,71.75
2023-05-07T00:44:56.342Z,71.82
2023-05-07T00:47:23.514Z,72.10
2023-05-07T00:49:50.783Z,72.36
2023-05-07T00:52:18.771Z,72.61
2023-05-07T00:54:45.897Z,72.75
2023-05-07T00:57:13.379Z,72.68
2023-05-07T00:59:41.889Z,72.48
2023-05-07T01:02:09.392Z,73.00
2023-05-07T01:04:40.050Z,73.07
2023-05-07T01:07:07.689Z,73.01
2023-05-07T01:09:36.556Z,73.23
2023-05-07T01:12:04.611Z,73.41
2023-05-07T01:14:34.072Z,73.53
2023-05-07T01:17:01.511Z,73.47
2023-05-07T01:19:32.885Z,73.62
2023-05-07T01:22:05.358Z,73.93
2023-05-07T01:24:39.421Z,73.81
2023-05-07T01:27:08.527Z,73.90
2023-05-07T01:29:37.146Z,74.02
2023-05-07T01:32:04.850Z,74.19
2023-05-07T01:34:35.932Z,74.40
2023-05-07T01:37:04.002Z,74.44
2023-05-07T01:39:31.634Z,74.65
2023-05-07T01:42:00.773Z,74.75
2023-05-07T01:44:29.173Z,74.68
2023-05-07T01:46:57.176Z,74.93
2023-05-07T01:49:24.251Z,75.05
2023-05-07T01:51:51.551Z,74.93
2023-05-07T01:54:18.814Z,75.23
2023-05-07T01:56:51.544Z,75.43
2023-05-07T01:59:18.622Z,76.02
2023-05-07T02:01:45.733Z,76.09
2023-05-07T02:04:13.425Z,76.19
2023-05-07T02:06:40.623Z,76.82
2023-05-07T02:09:10.085Z,77.18
2023-05-07T02:11:38.424Z,77.38
2023-05-07T02:14:06.667Z,77.17
2023-05-07T02:16:34.092Z,76.86
2023-05-07T02:19:02.170Z,76.69
2023-05-07T02:21:32.259Z,76.42
2023-05-07T02:23:59.369Z,76.18
2023-05-07T02:26:27.043Z,76.35
2023-05-07T02:28:57.846Z,76.15
2023-05-07T02:31:25.121Z,76.12
2023-05-07T02:33:52.208Z,75.71
2023-05-07T02:36:19.365Z,75.22
2023-05-07T02:38:53.104Z,75.15
2023-05-07T02:41:21.701Z,75.00
2023-05-07T02:43:48.929Z,74.84
2023-05-07T02:46:18.139Z,74.66
2023-05-07T02:48:49.381Z,74.23
2023-05-07T02:51:17.692Z,74.25
2023-05-07T02:53:44.889Z,74.15
2023-05-07T02:56:12.086Z,73.97
2023-05-07T02:58:43.196Z,73.90
2023-05-07T03:01:11.767Z,73.64
2023-05-07T03:03:45.437Z,73.50
2023-05-07T03:06:12.517Z,73.28
2023-05-07T03:08:39.603Z,73.04
2023-05-07T03:11:06.768Z,72.92
2023-05-07T03:13:33.888Z,72.98
2023-05-07T03:16:03.961Z,72.70
2023-05-07T03:18:31.108Z,72.66
2023-05-07T03:20:58.529Z,72.24
2023-05-07T03:23:25.872Z,72.13
2023-05-07T03:25:53.479Z,71.83
2023-05-07T03:28:21.494Z,71.66
2023-05-07T03:30:54.699Z,71.45
2023-05-07T03:33:25.041Z,71.42
2023-05-07T03:35:52.270Z,71.12
2023-05-07T03:38:23.698Z,71.12
2023-05-07T03:40:51.337Z,70.79
2023-05-07T03:43:18.528Z,70.62
2023-05-07T03:45:51.071Z,70.15
2023-05-07T03:48:30.144Z,69.93
2023-05-07T03:50:59.743Z,69.79
2023-05-07T03:53:30.793Z,69.45
2023-05-07T03:55:58.001Z,69.21
2023-05-07T03:58:25.105Z,69.10
2023-05-07T04:00:54.394Z,68.78
2023-05-07T04:03:26.742Z,68.42
2023-05-07T04:05:54.681Z,68.32
2023-05-07T04:08:22.120Z,67.86
2023-05-07T04:11:01.288Z,67.71
2023-05-07T04:13:31.596Z,67.67
2023-05-07T04:16:01.987Z,67.33
2023-05-07T04:18:29.733Z,67.01
2023-05-07T04:20:57.904Z,66.93
2023-05-07T04:23:27.983Z,66.63
2023-05-07T04:25:56.343Z,66.28
2023-05-07T04:28:29.697Z,65.73
2023-05-07T04:30:57.232Z,65.48
2023-05-07T04:33:24.590Z,65.47
2023-05-07T04:35:51.865Z,64.99
2023-05-07T04:38:19.491Z,63.80
2023-05-07T04:40:49.985Z,63.45
2023-05-07T04:43:21.772Z,63.34
2023-05-07T04:45:52.677Z,62.28
2023-05-07T04:48:21.660Z,61.63
2023-05-07T04:50:51.512Z,60.64
2023-05-07T04:53:19.953Z,60.31
2023-05-07T04:55:48.033Z,60.21
2023-05-07T04:58:19.047Z,60.38
2023-05-07T05:00:48.052Z,59.90
2023-05-07T05:03:15.177Z,59.37
2023-05-07T05:05:42.665Z,58.62
2023-05-07T05:08:10.181Z,57.66
2023-05-07T05:10:55.996Z,57.40
2023-05-07T05:13:23.196Z,57.38
2023-05-07T05:15:51.096Z,56.99
2023-05-07T05:18:18.596Z,56.42
2023-05-07T05:20:46.296Z,55.75
2023-05-07T05:23:13.567Z,54.92
2023-05-07T05:25:41.514Z,55.29
2023-05-07T05:28:11.626Z,54.76
2023-05-07T05:30:39.978Z,54.01
2023-05-07T05:33:07.131Z,53.08
2023-05-07T05:35:34.358Z,51.72
2023-05-07T05:38:04.925Z,51.13
2023-05-07T05:40:34.513Z,49.85
2023-05-07T05:43:04.038Z,50.08
2023-05-07T05:45:37.630Z,49.70
2023-05-07T05:48:07.239Z,49.44
2023-05-07T05:50:53.254Z,49.67
2023-05-07T05:53:20.807Z,48.88
2023-05-07T05:55:48.559Z,48.85
2023-05-07T05:58:16.419Z,48.50
2023-05-07T06:00:53.331Z,47.96
2023-05-07T06:03:23.516Z,46.86
2023-05-07T06:05:51.737Z,47.07
2023-05-07T06:08:21.375Z,47.22
2023-05-07T06:10:48.872Z,47.04
2023-05-07T06:13:16.983Z,46.93
2023-05-07T06:15:44.641Z,46.49
2023-05-07T06:18:13.977Z,46.02
2023-05-07T06:20:41.984Z,45.17
2023-05-07T06:23:37.801Z,46.29
2023-05-07T06:26:06.038Z,45.34
2023-05-07T06:28:38.580Z,44.48
2023-05-07T06:31:18.242Z,44.54
2023-05-07T06:33:55.164Z,44.78
2023-05-07T06:36:28.823Z,45.13
2023-05-07T06:39:01.620Z,45.48
2023-05-07T06:41:29.159Z,44.92
2023-05-07T06:44:00.420Z,44.76
2023-05-07T06:46:36.567Z,44.77
2023-05-07T06:49:06.115Z,44.94
2023-05-07T06:51:33.602Z,43.96
2023-05-07T06:54:06.601Z,43.71
2023-05-07T06:56:36.299Z,43.71
2023-05-07T06:59:05.114Z,43.08
2023-05-07T07:01:36.695Z,43.10
2023-05-07T07:04:05.214Z,42.02
2023-05-07T07:06:33.468Z,41.86
2023-05-07T07:09:06.547Z,41.42
2023-05-07T07:11:34.357Z,40.18
2023-05-07T07:14:01.706Z,40.61
2023-05-07T07:16:32.446Z,41.21
2023-05-07T07:19:00.880Z,41.74
2023-05-07T07:21:31.679Z,41.24
2023-05-07T07:23:59.851Z,40.24
2023-05-07T07:26:26.933Z,39.78
2023-05-07T07:28:56.648Z,38.94
2023-05-07T07:31:25.232Z,39.13
2023-05-07T07:33:53.194Z,38.52
2023-05-07T07:36:21.034Z,38.58
2023-05-07T07:38:49.267Z,39.04
2023-05-07T07:41:18.058Z,37.91
2023-05-07T07:43:45.547Z,35.80
2023-05-07T07:46:12.753Z,34.55
2023-05-07T07:48:40.500Z,34.52
2023-05-07T07:51:10.825Z,34.07
2023-05-07T07:53:38.358Z,33.75
2023-05-07T07:56:09.263Z,33.44
2023-05-07T07:58:37.914Z,33.63
2023-05-07T08:01:05.724Z,32.36
2023-05-07T08:03:33.742Z,32.23
2023-05-07T08:06:12.820Z,30.88
2023-05-07T08:08:40.720Z,31.87
2023-05-07T08:11:08.197Z,32.42
2023-05-07T08:13:37.509Z,32.79
2023-05-07T08:16:05.355Z,34.14
2023-05-07T08:18:34.324Z,34.83
2023-05-07T08:21:06.200Z,35.11
2023-05-07T08:23:35.545Z,35.50
2023-05-07T08:26:04.738Z,35.45
2023-05-07T08:28:33.152Z,35.45
2023-05-07T08:31:02.340Z,34.22
2023-05-07T08:33:36.801Z,33.81
2023-05-07T08:36:04.677Z,32.76
2023-05-07T08:38:32.536Z,30.95
2023-05-07T08:40:59.982Z,30.17
2023-05-07T08:43:30.507Z,30.50
2023-05-07T08:46:01.806Z,30.95
2023-05-07T08:48:32.435Z,31.74
2023-05-07T08:51:17.827Z,32.72
2023-05-07T08:53:47.271Z,32.90
2023-05-07T08:56:20.363Z,32.16
2023-05-07T08:58:57.814Z,30.31
2023-05-07T09:01:25.904Z,28.98
2023-05-07T09:03:54.172Z,29.61
2023-05-07T09:06:23.207Z,29.92
2023-05-07T09:08:52.979Z,28.62
2023-05-07T09:11:24.295Z,26.86
2023-05-07T09:14:02.349Z,27.53
2023-05-07T09:16:34.201Z,28.25
2023-05-07T09:19:02.236Z,29.27
2023-05-07T09:21:29.700Z,28.72
2023-05-07T09:23:59.672Z,30.58
2023-05-07T09:26:36.234Z,30.07
2023-05-07T09:29:04.956Z,30.51
2023-05-07T09:31:32.305Z,30.37
2023-05-07T09:34:00.183Z,30.60
2023-05-07T09:36:30.613Z,27.63
2023-05-07T09:39:01.135Z,25.31
2023-05-07T09:41:31.497Z,23.53
2023-05-07T09:44:08.232Z,23.59
2023-05-07T09:46:44.877Z,26.06
2023-05-07T09:49:24.293Z,26.49
2023-05-07T09:51:56.436Z,26.41
2023-05-07T09:54:30.223Z,24.76
2023-05-07T09:56:59.300Z,23.33
2023-05-07T09:59:30.425Z,24.11
2023-05-07T10:02:03.432Z,23.81
2023-05-07T10:04:35.434Z,23.14
2023-05-07T10:07:04.777Z,24.28
2023-05-07T10:09:33.521Z,25.57
2023-05-07T10:12:00.988Z,25.81
2023-05-07T10:14:28.680Z,26.08
2023-05-07T10:16:56.249Z,26.52
2023-05-07T10:19:24.181Z,26.57
2023-05-07T10:22:00.770Z,27.83
2023-05-07T10:24:36.986Z,27.51
2023-05-07T10:27:12.459Z,27.06
2023-05-07T10:29:53.821Z,26.03
2023-05-07T10:32:21.184Z,25.39
2023-05-07T10:34:50.389Z,25.22
2023-05-07T10:37:18.040Z,25.98
2023-05-07T10:39:47.238Z,26.31
2023-05-07T10:42:15.882Z,26.66
2023-05-07T10:44:48.934Z,26.62
2023-05-07T10:47:23.590Z,25.87
2023-05-07T10:50:06.646Z,25.09
2023-05-07T10:52:38.840Z,24.70
2023-05-07T10:55:21.365Z,24.73
2023-05-07T10:57:57.160Z,25.63
2023-05-07T11:03:06.381Z,25.56
2023-05-07T11:05:40.792Z,25.85
2023-05-07T11:09:00.694Z,23.55
2023-05-07T11:11:56.944Z,21.02
2023-05-07T11:14:43.395Z,19.88
2023-05-07T11:17:28.366Z,22.42
2023-05-07T11:20:03.802Z,24.42
2023-05-07T11:23:01.202Z,25.41
2023-05-07T11:25:34.690Z,25.77
2023-05-07T11:28:23.167Z,26.61
2023-05-07T11:31:00.882Z,25.97
2023-05-07T11:33:29.456Z,26.00
2023-05-07T11:35:58.458Z,26.12
2023-05-07T11:38:32.053Z,26.31
2023-05-07T11:41:01.802Z,26.06
2023-05-07T11:43:29.028Z,26.32
2023-05-07T11:45:56.216Z,26.35
2023-05-07T11:48:26.010Z,26.76
2023-05-07T11:50:55.730Z,27.30
2023-05-07T11:53:26.496Z,27.42
2023-05-07T11:55:56.755Z,28.17
2023-05-07T11:58:26.615Z,27.95
2023-05-07T12:00:54.837Z,27.43
2023-05-07T12:03:29.743Z,26.76
2023-05-07T12:05:59.221Z,26.81
2023-05-07T12:08:27.631Z,23.80
2023-05-07T12:10:56.373Z,22.82
2023-05-07T12:13:27.425Z,23.37
2023-05-07T12:15:55.565Z,24.11
2023-05-07T12:18:23.477Z,24.95
2023-05-07T12:20:52.714Z,25.66
2023-05-07T12:23:22.270Z,25.48
2023-05-07T12:25:50.949Z,25.87
2023-05-07T12:28:19.638Z,26.16
2023-05-07T12:30:54.525Z,26.13
2023-05-07T12:33:25.707Z,26.58
2023-05-07T12:35:57.129Z,25.96
2023-05-07T12:38:24.582Z,25.73
2023-05-07T12:40:55.807Z,24.74
2023-05-07T12:43:26.187Z,23.03
2023-05-07T12:45:56.794Z,21.29
2023-05-07T12:48:24.794Z,20.58
2023-05-07T12:50:54.130Z,20.96
2023-05-07T12:53:23.117Z,21.69
2023-05-07T12:55:57.918Z,22.33
2023-05-07T12:58:31.162Z,23.80
2023-05-07T13:01:01.103Z,24.81
2023-05-07T13:03:33.548Z,25.73
2023-05-07T13:06:05.536Z,25.05
2023-05-07T13:08:46.234Z,25.26
2023-05-07T13:11:14.423Z,25.79
2023-05-07T13:13:42.453Z,26.68
2023-05-07T13:16:11.587Z,26.73
2023-05-07T13:18:40.402Z,27.01
2023-05-07T13:21:14.403Z,26.84
2023-05-07T13:23:42.301Z,26.63
2023-05-07T13:26:24.815Z,27.63
2023-05-07T13:28:56.251Z,26.98
2023-05-07T13:31:27.298Z,26.74
2023-05-07T13:33:54.537Z,26.63
2023-05-07T13:36:21.810Z,26.11
2023-05-07T13:38:52.835Z,26.11
2023-05-07T13:41:20.159Z,25.71
2023-05-07T13:43:47.209Z,24.28
2023-05-07T13:46:18.395Z,22.63
2023-05-07T13:48:45.630Z,21.62
2023-05-07T13:51:18.142Z,21.49
2023-05-07T13:54:07.718Z,23.03
2023-05-07T13:56:35.215Z,23.79
2023-05-07T13:59:04.777Z,24.60
2023-05-07T14:01:35.068Z,24.80
2023-05-07T14:04:02.278Z,24.91
2023-05-07T14:06:29.325Z,24.13
2023-05-07T14:08:59.207Z,22.96
2023-05-07T14:11:26.608Z,23.49
2023-05-07T14:13:53.656Z,24.23
2023-05-07T14:16:20.727Z,24.18
2023-05-07T14:18:48.095Z,23.29
2023-05-07T14:21:21.353Z,23.94
2023-05-07T14:23:51.402Z,24.69
2023-05-07T14:26:21.909Z,24.09
2023-05-07T14:29:00.126Z,24.52
2023-05-07T14:31:31.107Z,24.70
2023-05-07T14:34:01.828Z,24.45
2023-05-07T14:36:28.879Z,22.14
2023-05-07T14:38:56.058Z,19.69
2023-05-07T14:41:23.776Z,18.63
2023-05-07T14:43:56.938Z,16.96
2023-05-07T14:46:27.117Z,17.06
2023-05-07T14:48:57.124Z,16.93
2023-05-07T14:51:36.744Z,16.24
2023-05-07T14:54:08.774Z,16.05
2023-05-07T14:57:41.502Z,16.71
2023-05-07T15:00:00.327Z,18.65
2023-05-07T15:02:31.879Z,20.43
2023-05-07T15:05:01.831Z,22.05
2023-05-07T15:07:35.515Z,23.07
2023-05-07T15:10:02.457Z,23.76
2023-05-07T15:12:31.490Z,24.47
2023-05-07T15:14:58.574Z,24.35
2023-05-07T15:17:25.720Z,24.82
2023-05-07T15:19:54.365Z,25.28
2023-05-07T15:22:22.817Z,25.47
2023-05-07T15:24:49.996Z,25.59
2023-05-07T15:27:18.207Z,25.83
2023-05-07T15:29:45.744Z,26.21
2023-05-07T15:32:12.982Z,26.27
2023-05-07T15:34:41.977Z,26.63
2023-05-07T15:37:09.301Z,26.75
2023-05-07T15:39:40.202Z,26.92
2023-05-07T15:42:07.473Z,26.91
2023-05-07T15:44:35.981Z,26.92
2023-05-07T15:47:03.223Z,26.95
2023-05-07T15:49:30.687Z,27.22
2023-05-07T15:52:00.909Z,27.22
2023-05-07T15:54:27.993Z,27.22
2023-05-07T15:56:55.170Z,27.92
2023-05-07T15:59:22.689Z,28.05
2023-05-07T16:01:55.497Z,27.64
2023-05-07T16:04:22.591Z,27.88
2023-05-07T16:06:49.776Z,28.11
2023-05-07T16:09:16.957Z,28.42
2023-05-07T16:11:44.101Z,28.92
2023-05-07T16:14:12.040Z,28.89
2023-05-07T16:16:40.965Z,29.16
2023-05-07T16:19:08.004Z,29.09
2023-05-07T16:21:43.731Z,29.68
2023-05-07T16:24:11.025Z,29.38
2023-05-07T16:26:38.333Z,29.24
2023-05-07T16:29:08.793Z,29.58
2023-05-07T16:31:36.828Z,29.73
2023-05-07T16:34:04.828Z,29.40
2023-05-07T16:36:32.126Z,29.23
2023-05-07T16:41:40.530Z,30.01
2023-05-07T16:44:09.570Z,30.16
2023-05-07T16:46:36.761Z,30.41
2023-05-07T16:49:03.917Z,30.22
2023-05-07T16:51:33.971Z,30.21
2023-05-07T16:54:01.196Z,30.60
2023-05-07T16:56:28.484Z,30.89
2023-05-07T16:58:55.939Z,30.61
2023-05-07T17:01:23.039Z,31.13
2023-05-07T17:03:50.903Z,31.32
2023-05-07T17:06:18.270Z,31.25
2023-05-07T17:08:45.532Z,31.04
2023-05-07T17:11:12.974Z,31.05
2023-05-07T17:13:41.208Z,31.01
2023-05-07T17:16:08.560Z,31.10
2023-05-07T17:18:35.872Z,31.13
2023-05-07T17:21:03.060Z,31.24
2023-05-07T17:23:30.203Z,31.28
2023-05-07T17:25:58.578Z,31.30
2023-05-07T17:28:26.649Z,32.08
2023-05-07T17:30:53.654Z,32.23
2023-05-07T17:33:22.475Z,32.70
2023-05-07T17:35:50.037Z,32.77
2023-05-07T17:38:18.353Z,32.93
2023-05-07T17:40:46.191Z,32.96
2023-05-07T17:43:13.277Z,33.19
2023-05-07T17:45:40.892Z,33.27
2023-05-07T17:48:08.349Z,33.93
2023-05-07T17:50:38.260Z,34.34
2023-05-07T17:53:06.206Z,34.50
2023-05-07T17:55:40.516Z,34.63
2023-05-07T17:58:07.792Z,34.72
2023-05-07T18:00:36.174Z,35.10
2023-05-07T18:03:06.647Z,35.27
2023-05-07T18:05:36.693Z,35.73
2023-05-07T18:08:04.019Z,36.04
2023-05-07T18:10:31.338Z,36.03
2023-05-07T18:12:58.617Z,36.16
2023-05-07T18:15:25.846Z,36.09
2023-05-07T18:17:53.118Z,36.38
2023-05-07T18:20:20.636Z,36.57
2023-05-07T18:22:50.537Z,36.84
2023-05-07T18:25:18.014Z,37.04
2023-05-07T18:27:45.666Z,36.99
2023-05-07T18:30:13.433Z,37.14
2023-05-07T18:32:41.139Z,37.65
2023-05-07T18:35:11.029Z,37.53
2023-05-07T18:37:38.110Z,37.52
2023-05-07T18:40:06.192Z,38.03
2023-05-07T18:42:37.287Z,37.95
2023-05-07T18:45:05.755Z,38.43
2023-05-07T18:47:54.100Z,38.95
2023-05-07T18:50:42.429Z,38.88
2023-05-07T18:53:09.597Z,39.15
2023-05-07T18:55:36.717Z,39.19
2023-05-07T18:58:03.812Z,39.62
2023-05-07T19:00:30.955Z,40.08
2023-05-07T19:02:58.103Z,40.27
2023-05-07T19:05:25.321Z,40.23
2023-05-07T19:07:52.321Z,40.53
2023-05-07T19:10:19.486Z,40.65
2023-05-07T19:12:46.877Z,40.75
2023-05-07T19:15:14.518Z,40.64
2023-05-07T19:17:44.424Z,41.23
2023-05-07T19:20:11.953Z,41.32
2023-05-07T19:22:39.312Z,41.33
2023-05-07T19:25:07.188Z,41.92
2023-05-07T19:27:34.519Z,42.02
2023-05-07T19:30:01.917Z,41.92
2023-05-07T19:32:31.929Z,41.70
2023-05-07T19:34:59.094Z,41.89
2023-05-07T19:37:27.959Z,41.95
2023-05-07T19:39:55.081Z,42.23
2023-05-07T19:42:24.457Z,42.29
2023-05-07T19:44:59.468Z,42.57
2023-05-07T19:47:26.917Z,42.93
2023-05-07T19:49:56.985Z,42.95
2023-05-07T19:52:26.298Z,43.18
2023-05-07T19:54:53.551Z,43.43
2023-05-07T19:57:20.828Z,43.68
2023-05-07T19:59:47.929Z,43.87
2023-05-07T20:02:15.676Z,43.84
2023-05-07T20:04:49.805Z,43.96
2023-05-07T20:07:16.893Z,44.16
2023-05-07T20:09:43.895Z,44.69
2023-05-07T20:12:11.094Z,45.50
2023-05-07T20:14:38.184Z,45.78
2023-05-07T20:17:08.885Z,45.86
2023-05-07T20:19:36.024Z,46.13
2023-05-07T20:22:03.153Z,46.35
2023-05-07T20:24:30.282Z,46.02
2023-05-07T20:26:57.561Z,45.86
2023-05-07T20:29:26.355Z,45.98
2023-05-07T20:31:53.654Z,46.16
2023-05-07T20:34:20.966Z,46.62
2023-05-07T20:36:48.035Z,46.73
2023-05-07T20:39:16.258Z,46.92
2023-05-07T20:41:46.643Z,46.79
2023-05-07T20:44:13.823Z,47.07
2023-05-07T20:46:41.058Z,47.30
2023-05-07T20:49:14.990Z,47.65
2023-05-07T20:51:42.518Z,47.64
2023-05-07T20:54:09.656Z,48.01
2023-05-07T20:56:37.153Z,48.22
2023-05-07T20:59:05.061Z,48.41
2023-05-07T21:01:32.313Z,48.99
2023-05-07T21:03:59.593Z,49.48
2023-05-07T21:06:26.832Z,50.03
2023-05-07T21:08:54.435Z,50.43
2023-05-07T21:11:21.840Z,50.58
2023-05-07T21:13:52.146Z,51.01
2023-05-07T21:16:19.418Z,51.45
2023-05-07T21:18:46.634Z,52.08
2023-05-07T21:21:19.006Z,52.50
2023-05-07T21:23:46.045Z,52.72
2023-05-07T21:26:19.624Z,53.14
2023-05-07T21:28:46.856Z,53.24
2023-05-07T21:31:16.582Z,53.61
2023-05-07T21:33:44.469Z,53.43
2023-05-07T21:36:11.840Z,53.92
2023-05-07T21:38:41.321Z,54.37
2023-05-07T21:41:09.040Z,54.54
2023-05-07T21:43:37.023Z,54.94
2023-05-07T21:46:10.575Z,55.37
2023-05-07T21:48:38.888Z,55.61
2023-05-07T21:51:07.648Z,55.82
2023-05-07T21:53:35.145Z,56.19
2023-05-07T21:56:29.424Z,56.69
2023-05-07T21:58:56.638Z,56.70
2023-05-07T22:01:26.940Z,57.05
2023-05-07T22:03:56.877Z,56.82
2023-05-07T22:06:25.355Z,57.24
2023-05-07T22:08:53.550Z,57.56
2023-05-07T22:11:21.278Z,57.75
2023-05-07T22:13:48.419Z,58.11
2023-05-07T22:16:15.792Z,58.59
2023-05-07T22:18:43.930Z,59.21
2023-05-07T22:21:13.071Z,59.42
2023-05-07T22:23:40.130Z,60.02
2023-05-07T22:26:11.872Z,60.40
2023-05-07T22:28:39.241Z,60.68
2023-05-07T22:31:06.800Z,60.53
2023-05-07T22:33:33.808Z,60.54
2023-05-07T22:36:00.930Z,61.05
2023-05-07T22:38:27.950Z,61.15
2023-05-07T22:40:55.057Z,61.12
2023-05-07T22:43:22.085Z,61.43
2023-05-07T22:45:49.179Z,61.53
2023-05-07T22:48:18.797Z,61.57
2023-05-07T22:50:45.909Z,61.93
2023-05-07T22:53:13.102Z,61.97
2023-05-07T22:55:40.118Z,62.12
2023-05-07T22:58:10.166Z,62.23
2023-05-07T23:00:37.919Z,62.28
2023-05-07T23:03:05.189Z,62.42
2023-05-07T23:05:32.303Z,62.71
2023-05-07T23:07:59.449Z,63.08
2023-05-07T23:10:26.571Z,63.09
2023-05-07T23:12:53.994Z,63.43
2023-05-07T23:15:21.452Z,63.84
2023-05-07T23:17:49.046Z,63.89
2023-05-07T23:20:16.456Z,64.18
2023-05-07T23:22:43.474Z,63.88
2023-05-07T23:25:11.503Z,64.06
2023-05-07T23:27:38.828Z,64.28
2023-05-07T23:30:09.651Z,64.62
2023-05-07T23:32:39.479Z,64.49
2023-05-07T23:35:07.092Z,64.61
2023-05-07T23:37:34.658Z,64.85
2023-05-07T23:40:02.126Z,64.99
2023-05-07T23:42:31.320Z,65.36
2023-05-07T23:44:58.404Z,65.57
2023-05-07T23:47:25.717Z,65.79
2023-05-07T23:49:52.834Z,65.89
2023-05-07T23:52:20.117Z,65.98
2023-05-07T23:54:49.516Z,66.09
2023-05-07T23:57:19.012Z,66.17
2023-05-07T23:59:45.984Z,65.98
